sensor_id;sensor_type;location;lat;lon;timestamp;pressure;altitude;pressure_sealevel;temperature;humidity
57248;BME280;55809;46.618;10.764;2023-11-21T00:02:21;92439.63;;;3.37;100.00
57248;BME280;55809;46.618;10.764;2023-11-21T00:04:48;92455.81;;;3.21;100.00
57248;BME280;55809;46.618;10.764;2023-11-21T00:07:16;92458.03;;;3.15;100.00
57248;BME280;55809;46.618;10.764;2023-11-21T00:09:43;92462.22;;;3.13;100.00
57248;BME280;55809;46.618;10.764;2023-11-21T00:12:10;92454.47;;;3.04;100.00
57248;BME280;55809;46.618;10.764;2023-11-21T00:14:37;92444.97;;;3.03;100.00
57248;BME280;55809;46.618;10.764;2023-11-21T00:17:04;92445.72;;;3.03;100.00
57248;BME280;55809;46.618;10.764;2023-11-21T00:19:31;92433.16;;;3.04;100.00
57248;BME280;55809;46.618;10.764;2023-11-21T00:21:58;92435.88;;;3.08;100.00
57248;BME280;55809;46.618;10.764;2023-11-21T00:24:27;92440.06;;;3.42;100.00
57248;BME280;55809;46.618;10.764;2023-11-21T00:26:53;92441.19;;;3.41;100.00
57248;BME280;55809;46.618;10.764;2023-11-21T00:29:20;92435.75;;;3.31;100.00
57248;BME280;55809;46.618;10.764;2023-11-21T00:31:47;92441.72;;;3.20;100.00
57248;BME280;55809;46.618;10.764;2023-11-21T00:34:14;92441.56;;;3.06;100.00
57248;BME280;55809;46.618;10.764;2023-11-21T00:36:41;92440.72;;;3.02;100.00
57248;BME280;55809;46.618;10.764;2023-11-21T00:39:08;92434.28;;;3.03;100.00
57248;BME280;55809;46.618;10.764;2023-11-21T00:41:38;92436.97;;;3.03;100.00
57248;BME280;55809;46.618;10.764;2023-11-21T00:44:05;92440.38;;;3.03;100.00
57248;BME280;55809;46.618;10.764;2023-11-21T00:46:32;92356.53;;;2.64;100.00
57248;BME280;55809;46.618;10.764;2023-11-21T00:48:59;92430.22;;;3.13;100.00
57248;BME280;55809;46.618;10.764;2023-11-21T00:51:26;92419.22;;;3.18;100.00
57248;BME280;55809;46.618;10.764;2023-11-21T00:53:53;92411.16;;;3.11;100.00
57248;BME280;55809;46.618;10.764;2023-11-21T00:56:20;92420.22;;;3.40;100.00
57248;BME280;55809;46.618;10.764;2023-11-21T00:58:49;92424.00;;;3.39;100.00
57248;BME280;55809;46.618;10.764;2023-11-21T01:01:17;92419.09;;;3.41;100.00
57248;BME280;55809;46.618;10.764;2023-11-21T01:03:46;92403.81;;;3.38;100.00
57248;BME280;55809;46.618;10.764;2023-11-21T01:06:13;92414.00;;;3.28;100.00
57248;BME280;55809;46.618;10.764;2023-11-21T01:08:40;92395.22;;;3.18;100.00
57248;BME280;55809;46.618;10.764;2023-11-21T01:11:07;92404.53;;;3.35;100.00
57248;BME280;55809;46.618;10.764;2023-11-21T01:13:35;92398.75;;;3.29;100.00
57248;BME280;55809;46.618;10.764;2023-11-21T01:16:04;92407.31;;;3.45;100.00
57248;BME280;55809;46.618;10.764;2023-11-21T01:18:31;92396.88;;;3.29;100.00
57248;BME280;55809;46.618;10.764;2023-11-21T01:20:59;92406.81;;;3.33;100.00
57248;BME280;55809;46.618;10.764;2023-11-21T01:23:26;92403.16;;;3.48;100.00
57248;BME280;55809;46.618;10.764;2023-11-21T01:25:55;92405.78;;;3.44;100.00
57248;BME280;55809;46.618;10.764;2023-11-21T01:28:22;92401.94;;;3.42;100.00
57248;BME280;55809;46.618;10.764;2023-11-21T01:30:50;92396.28;;;3.47;100.00
57248;BME280;55809;46.618;10.764;2023-11-21T01:33:18;92405.41;;;3.42;100.00
57248;BME280;55809;46.618;10.764;2023-11-21T01:35:45;92406.66;;;3.18;100.00
57248;BME280;55809;46.618;10.764;2023-11-21T01:38:12;92401.97;;;3.08;100.00
57248;BME280;55809;46.618;10.764;2023-11-21T01:40:40;92397.13;;;3.17;100.00
57248;BME280;55809;46.618;10.764;2023-11-21T01:43:07;92395.19;;;3.14;100.00
57248;BME280;55809;46.618;10.764;2023-11-21T01:45:35;92397.31;;;3.01;100.00
57248;BME280;55809;46.618;10.764;2023-11-21T01:48:02;92398.41;;;2.97;100.00
57248;BME280;55809;46.618;10.764;2023-11-21T01:50:30;92394.31;;;3.03;100.00
57248;BME280;55809;46.618;10.764;2023-11-21T01:52:59;92397.41;;;3.09;100.00
57248;BME280;55809;46.618;10.764;2023-11-21T01:55:27;92372.75;;;2.85;100.00
57248;BME280;55809;46.618;10.764;2023-11-21T01:57:55;92395.22;;;3.18;100.00
57248;BME280;55809;46.618;10.764;2023-11-21T02:00:23;92392.81;;;3.09;100.00
57248;BME280;55809;46.618;10.764;2023-11-21T02:02:51;92395.84;;;3.04;100.00
57248;BME280;55809;46.618;10.764;2023-11-21T02:05:18;92389.31;;;3.01;100.00
57248;BME280;55809;46.618;10.764;2023-11-21T02:07:46;92396.88;;;2.96;100.00
57248;BME280;55809;46.618;10.764;2023-11-21T02:10:14;92395.97;;;3.18;100.00
57248;BME280;55809;46.618;10.764;2023-11-21T02:12:42;92393.34;;;3.22;100.00
57248;BME280;55809;46.618;10.764;2023-11-21T02:15:10;92396.31;;;3.13;100.00
57248;BME280;55809;46.618;10.764;2023-11-21T02:17:45;92393.44;;;2.95;100.00
57248;BME280;55809;46.618;10.764;2023-11-21T02:20:17;92396.53;;;2.97;100.00
57248;BME280;55809;46.618;10.764;2023-11-21T02:22:49;92389.31;;;3.01;100.00
57248;BME280;55809;46.618;10.764;2023-11-21T02:25:17;92391.47;;;2.89;100.00
57248;BME280;55809;46.618;10.764;2023-11-21T02:27:44;92363.16;;;2.77;100.00
57248;BME280;55809;46.618;10.764;2023-11-21T02:30:14;92392.31;;;2.96;100.00
57248;BME280;55809;46.618;10.764;2023-11-21T02:32:41;92392.03;;;3.05;100.00
57248;BME280;55809;46.618;10.764;2023-11-21T02:35:09;92384.13;;;3.16;100.00
57248;BME280;55809;46.618;10.764;2023-11-21T02:37:37;92380.56;;;3.01;100.00
57248;BME280;55809;46.618;10.764;2023-11-21T02:40:08;92368.84;;;2.75;100.00
57248;BME280;55809;46.618;10.764;2023-11-21T02:42:35;92376.44;;;2.73;100.00
57248;BME280;55809;46.618;10.764;2023-11-21T02:45:02;92359.63;;;2.69;100.00
57248;BME280;55809;46.618;10.764;2023-11-21T02:47:31;92360.34;;;2.66;100.00
57248;BME280;55809;46.618;10.764;2023-11-21T02:49:59;92355.81;;;2.67;100.00
57248;BME280;55809;46.618;10.764;2023-11-21T02:52:26;92358.09;;;3.02;100.00
57248;BME280;55809;46.618;10.764;2023-11-21T02:54:52;92354.91;;;3.23;100.00
57248;BME280;55809;46.618;10.764;2023-11-21T02:57:21;92360.44;;;3.07;100.00
57248;BME280;55809;46.618;10.764;2023-11-21T02:59:48;92364.41;;;2.87;100.00
57248;BME280;55809;46.618;10.764;2023-11-21T03:02:15;92349.19;;;2.53;100.00
57248;BME280;55809;46.618;10.764;2023-11-21T03:04:42;92338.25;;;2.32;100.00
57248;BME280;55809;46.618;10.764;2023-11-21T03:07:09;92361.66;;;2.49;100.00
57248;BME280;55809;46.618;10.764;2023-11-21T03:09:36;92343.00;;;2.49;100.00
57248;BME280;55809;46.618;10.764;2023-11-21T03:12:04;92368.09;;;2.45;100.00
57248;BME280;55809;46.618;10.764;2023-11-21T03:14:33;92374.22;;;2.49;100.00
57248;BME280;55809;46.618;10.764;2023-11-21T03:16:59;92375.06;;;2.56;100.00
57248;BME280;55809;46.618;10.764;2023-11-21T03:19:26;92358.16;;;2.42;100.00
57248;BME280;55809;46.618;10.764;2023-11-21T03:21:53;92361.22;;;2.44;100.00
57248;BME280;55809;46.618;10.764;2023-11-21T03:24:20;92361.53;;;2.39;100.00
57248;BME280;55809;46.618;10.764;2023-11-21T03:26:48;92368.53;;;2.50;100.00
57248;BME280;55809;46.618;10.764;2023-11-21T03:29:15;92371.41;;;2.38;100.00
57248;BME280;55809;46.618;10.764;2023-11-21T03:31:44;92366.34;;;2.29;100.00
57248;BME280;55809;46.618;10.764;2023-11-21T03:34:15;92369.25;;;2.47;100.00
57248;BME280;55809;46.618;10.764;2023-11-21T03:36:43;92345.38;;;2.54;100.00
57248;BME280;55809;46.618;10.764;2023-11-21T03:39:11;92352.50;;;2.47;100.00
57248;BME280;55809;46.618;10.764;2023-11-21T03:41:38;92353.91;;;2.37;100.00
57248;BME280;55809;46.618;10.764;2023-11-21T03:44:05;92350.06;;;2.34;100.00
57248;BME280;55809;46.618;10.764;2023-11-21T03:46:32;92267.09;;;1.72;100.00
57248;BME280;55809;46.618;10.764;2023-11-21T03:49:00;92351.19;;;2.33;100.00
57248;BME280;55809;46.618;10.764;2023-11-21T03:51:27;92355.50;;;2.42;100.00
57248;BME280;55809;46.618;10.764;2023-11-21T03:53:54;92356.38;;;2.53;100.00
57248;BME280;55809;46.618;10.764;2023-11-21T03:56:21;92360.09;;;2.45;100.00
57248;BME280;55809;46.618;10.764;2023-11-21T03:58:48;92341.56;;;2.25;100.00
57248;BME280;55809;46.618;10.764;2023-11-21T04:01:20;92365.25;;;2.30;100.00
57248;BME280;55809;46.618;10.764;2023-11-21T04:03:48;92342.72;;;2.24;100.00
57248;BME280;55809;46.618;10.764;2023-11-21T04:06:16;92362.28;;;2.39;100.00
57248;BME280;55809;46.618;10.764;2023-11-21T04:08:43;92352.31;;;2.32;100.00
57248;BME280;55809;46.618;10.764;2023-11-21T04:11:10;92348.75;;;2.21;100.00
57248;BME280;55809;46.618;10.764;2023-11-21T04:13:38;92349.81;;;2.17;100.00
57248;BME280;55809;46.618;10.764;2023-11-21T04:16:06;92346.03;;;2.18;100.00
57248;BME280;55809;46.618;10.764;2023-11-21T04:18:33;92338.81;;;2.18;100.00
57248;BME280;55809;46.618;10.764;2023-11-21T04:21:00;92326.44;;;2.33;100.00
57248;BME280;55809;46.618;10.764;2023-11-21T04:23:29;92332.75;;;2.48;100.00
57248;BME280;55809;46.618;10.764;2023-11-21T04:25:57;92327.78;;;2.80;100.00
57248;BME280;55809;46.618;10.764;2023-11-21T04:28:24;92327.00;;;2.79;100.00
57248;BME280;55809;46.618;10.764;2023-11-21T04:30:51;92324.59;;;2.67;100.00
57248;BME280;55809;46.618;10.764;2023-11-21T04:33:18;92321.00;;;2.52;100.00
57248;BME280;55809;46.618;10.764;2023-11-21T04:35:45;92332.75;;;2.48;100.00
57248;BME280;55809;46.618;10.764;2023-11-21T04:38:12;92338.78;;;2.45;100.00
57248;BME280;55809;46.618;10.764;2023-11-21T04:40:40;92323.16;;;2.13;100.00
57248;BME280;55809;46.618;10.764;2023-11-21T04:43:07;92339.59;;;2.19;100.00
57248;BME280;55809;46.618;10.764;2023-11-21T04:45:34;92341.13;;;2.20;100.00
57248;BME280;55809;46.618;10.764;2023-11-21T04:48:00;92333.97;;;2.24;100.00
57248;BME280;55809;46.618;10.764;2023-11-21T04:50:27;92342.28;;;2.22;100.00
57248;BME280;55809;46.618;10.764;2023-11-21T04:52:54;92333.75;;;2.09;100.00
57248;BME280;55809;46.618;10.764;2023-11-21T04:55:21;92327.91;;;2.00;100.00
57248;BME280;55809;46.618;10.764;2023-11-21T04:57:50;92355.13;;;2.17;100.00
57248;BME280;55809;46.618;10.764;2023-11-21T05:00:17;92360.50;;;2.20;100.00
57248;BME280;55809;46.618;10.764;2023-11-21T05:02:45;92369.78;;;2.03;100.00
57248;BME280;55809;46.618;10.764;2023-11-21T05:05:12;92345.09;;;1.80;100.00
57248;BME280;55809;46.618;10.764;2023-11-21T05:07:40;92365.16;;;2.00;100.00
57248;BME280;55809;46.618;10.764;2023-11-21T05:10:08;92295.22;;;1.47;100.00
57248;BME280;55809;46.618;10.764;2023-11-21T05:12:37;92363.97;;;1.94;100.00
57248;BME280;55809;46.618;10.764;2023-11-21T05:15:07;92364.56;;;1.84;100.00
57248;BME280;55809;46.618;10.764;2023-11-21T05:17:35;92350.91;;;1.85;100.00
57248;BME280;55809;46.618;10.764;2023-11-21T05:20:02;92353.97;;;1.87;100.00
57248;BME280;55809;46.618;10.764;2023-11-21T05:22:33;92353.81;;;2.03;100.00
57248;BME280;55809;46.618;10.764;2023-11-21T05:25:00;92345.34;;;2.21;100.00
57248;BME280;55809;46.618;10.764;2023-11-21T05:27:28;92361.50;;;2.35;100.00
57248;BME280;55809;46.618;10.764;2023-11-21T05:29:55;92362.84;;;2.52;100.00
57248;BME280;55809;46.618;10.764;2023-11-21T05:32:23;92362.66;;;2.38;100.00
57248;BME280;55809;46.618;10.764;2023-11-21T05:34:50;92362.47;;;2.23;100.00
57248;BME280;55809;46.618;10.764;2023-11-21T05:37:17;92363.34;;;2.04;100.00
57248;BME280;55809;46.618;10.764;2023-11-21T05:39:44;92360.94;;;1.96;100.00
57248;BME280;55809;46.618;10.764;2023-11-21T05:42:11;92368.50;;;1.94;100.00
57248;BME280;55809;46.618;10.764;2023-11-21T05:44:41;92367.06;;;2.00;100.00
57248;BME280;55809;46.618;10.764;2023-11-21T05:47:08;92365.88;;;1.97;100.00
57248;BME280;55809;46.618;10.764;2023-11-21T05:49:36;92378.28;;;1.86;100.00
57248;BME280;55809;46.618;10.764;2023-11-21T05:52:04;92370.19;;;1.79;100.00
57248;BME280;55809;46.618;10.764;2023-11-21T05:54:32;92386.69;;;1.88;100.00
57248;BME280;55809;46.618;10.764;2023-11-21T05:56:59;92381.81;;;1.94;100.00
57248;BME280;55809;46.618;10.764;2023-11-21T05:59:26;92379.13;;;1.94;100.00
57248;BME280;55809;46.618;10.764;2023-11-21T06:01:53;92375.78;;;1.97;100.00
57248;BME280;55809;46.618;10.764;2023-11-21T06:04:20;92371.13;;;2.17;100.00
57248;BME280;55809;46.618;10.764;2023-11-21T06:06:51;92366.41;;;2.06;100.00
57248;BME280;55809;46.618;10.764;2023-11-21T06:09:19;92369.84;;;2.07;100.00
57248;BME280;55809;46.618;10.764;2023-11-21T06:11:46;92362.28;;;2.09;100.00
57248;BME280;55809;46.618;10.764;2023-11-21T06:14:13;92362.19;;;2.32;100.00
57248;BME280;55809;46.618;10.764;2023-11-21T06:16:40;92355.63;;;2.52;100.00
57248;BME280;55809;46.618;10.764;2023-11-21T06:19:07;92362.13;;;2.55;100.00
57248;BME280;55809;46.618;10.764;2023-11-21T06:21:34;92350.63;;;2.47;100.00
57248;BME280;55809;46.618;10.764;2023-11-21T06:24:04;92345.63;;;2.46;100.00
57248;BME280;55809;46.618;10.764;2023-11-21T06:26:32;92352.66;;;2.57;100.00
57248;BME280;55809;46.618;10.764;2023-11-21T06:29:00;92352.81;;;2.42;100.00
57248;BME280;55809;46.618;10.764;2023-11-21T06:31:28;92357.72;;;2.40;100.00
57248;BME280;55809;46.618;10.764;2023-11-21T06:33:55;92359.16;;;2.33;100.00
57248;BME280;55809;46.618;10.764;2023-11-21T06:36:23;92356.84;;;2.28;100.00
57248;BME280;55809;46.618;10.764;2023-11-21T06:38:50;92364.53;;;2.64;100.00
57248;BME280;55809;46.618;10.764;2023-11-21T06:41:18;92367.88;;;2.57;100.00
57248;BME280;55809;46.618;10.764;2023-11-21T06:43:45;92367.75;;;2.50;100.00
57248;BME280;55809;46.618;10.764;2023-11-21T06:46:12;92366.78;;;2.62;100.00
57248;BME280;55809;46.618;10.764;2023-11-21T06:48:41;92365.81;;;2.47;100.00
57248;BME280;55809;46.618;10.764;2023-11-21T06:51:08;92365.63;;;2.32;100.00
57248;BME280;55809;46.618;10.764;2023-11-21T06:53:37;92362.91;;;2.29;100.00
57248;BME280;55809;46.618;10.764;2023-11-21T06:56:05;92368.50;;;2.20;100.00
57248;BME280;55809;46.618;10.764;2023-11-21T06:58:34;92374.00;;;2.31;100.00
57248;BME280;55809;46.618;10.764;2023-11-21T07:01:00;92357.97;;;2.27;100.00
57248;BME280;55809;46.618;10.764;2023-11-21T07:03:27;92365.19;;;2.57;100.00
57248;BME280;55809;46.618;10.764;2023-11-21T07:05:54;92368.91;;;2.82;100.00
57248;BME280;55809;46.618;10.764;2023-11-21T07:08:21;92374.81;;;2.99;100.00
57248;BME280;55809;46.618;10.764;2023-11-21T07:10:48;92382.22;;;3.13;100.00
57248;BME280;55809;46.618;10.764;2023-11-21T07:13:15;92378.53;;;3.24;100.00
57248;BME280;55809;46.618;10.764;2023-11-21T07:15:43;92378.94;;;3.26;100.00
57248;BME280;55809;46.618;10.764;2023-11-21T07:18:10;92380.28;;;3.10;100.00
57248;BME280;55809;46.618;10.764;2023-11-21T07:20:37;92385.22;;;3.08;100.00
57248;BME280;55809;46.618;10.764;2023-11-21T07:23:04;92392.78;;;3.05;100.00
57248;BME280;55809;46.618;10.764;2023-11-21T07:25:31;92385.81;;;2.94;100.00
57248;BME280;55809;46.618;10.764;2023-11-21T07:27:59;92396.66;;;3.12;100.00
57248;BME280;55809;46.618;10.764;2023-11-21T07:30:26;92376.38;;;3.00;100.00
57248;BME280;55809;46.618;10.764;2023-11-21T07:32:54;92383.88;;;2.91;100.00
57248;BME280;55809;46.618;10.764;2023-11-21T07:35:21;92390.09;;;3.02;100.00
57248;BME280;55809;46.618;10.764;2023-11-21T07:37:48;92376.56;;;2.84;100.00
57248;BME280;55809;46.618;10.764;2023-11-21T07:40:15;92396.44;;;2.90;100.00
57248;BME280;55809;46.618;10.764;2023-11-21T07:42:42;92405.47;;;2.82;100.00
57248;BME280;55809;46.618;10.764;2023-11-21T07:45:09;92401.22;;;2.77;100.00
57248;BME280;55809;46.618;10.764;2023-11-21T07:47:36;92371.63;;;2.56;100.00
57248;BME280;55809;46.618;10.764;2023-11-21T07:50:07;92396.25;;;2.76;100.00
57248;BME280;55809;46.618;10.764;2023-11-21T07:52:34;92400.19;;;2.86;100.00
57248;BME280;55809;46.618;10.764;2023-11-21T07:55:01;92394.84;;;2.86;100.00
57248;BME280;55809;46.618;10.764;2023-11-21T07:57:29;92398.34;;;2.90;100.00
57248;BME280;55809;46.618;10.764;2023-11-21T07:59:55;92391.03;;;2.83;100.00
57248;BME280;55809;46.618;10.764;2023-11-21T08:02:22;92394.84;;;2.86;100.00
57248;BME280;55809;46.618;10.764;2023-11-21T08:04:49;92388.78;;;2.89;100.00
57248;BME280;55809;46.618;10.764;2023-11-21T08:07:18;92382.25;;;2.82;100.00
57248;BME280;55809;46.618;10.764;2023-11-21T08:09:45;92377.63;;;2.79;100.00
57248;BME280;55809;46.618;10.764;2023-11-21T08:12:14;92368.91;;;2.82;100.00
57248;BME280;55809;46.618;10.764;2023-11-21T08:14:42;92365.28;;;2.98;100.00
57248;BME280;55809;46.618;10.764;2023-11-21T08:17:10;92363.50;;;3.09;100.00
57248;BME280;55809;46.618;10.764;2023-11-21T08:19:37;92359.75;;;3.14;100.00
57248;BME280;55809;46.618;10.764;2023-11-21T08:22:03;92351.50;;;3.26;100.00
57248;BME280;55809;46.618;10.764;2023-11-21T08:24:34;92354.72;;;3.42;100.00
57248;BME280;55809;46.618;10.764;2023-11-21T08:27:03;92299.50;;;3.09;100.00
57248;BME280;55809;46.618;10.764;2023-11-21T08:29:32;92354.44;;;3.58;100.00
57248;BME280;55809;46.618;10.764;2023-11-21T08:31:59;92356.78;;;3.63;100.00
57248;BME280;55809;46.618;10.764;2023-11-21T08:34:26;92356.41;;;3.65;100.00
57248;BME280;55809;46.618;10.764;2023-11-21T08:36:53;92319.25;;;3.42;100.00
57248;BME280;55809;46.618;10.764;2023-11-21T08:39:21;92358.03;;;3.76;100.00
57248;BME280;55809;46.618;10.764;2023-11-21T08:41:51;92350.91;;;3.91;100.00
57248;BME280;55809;46.618;10.764;2023-11-21T08:44:17;92354.41;;;3.99;100.00
57248;BME280;55809;46.618;10.764;2023-11-21T08:46:44;92350.97;;;3.98;100.00
57248;BME280;55809;46.618;10.764;2023-11-21T08:49:12;92362.41;;;3.99;100.00
57248;BME280;55809;46.618;10.764;2023-11-21T08:51:39;92353.25;;;4.00;100.00
57248;BME280;55809;46.618;10.764;2023-11-21T08:54:06;92341.09;;;4.06;100.00
57248;BME280;55809;46.618;10.764;2023-11-21T08:56:33;92349.91;;;4.14;100.00
57248;BME280;55809;46.618;10.764;2023-11-21T08:59:02;92345.91;;;4.41;100.00
57248;BME280;55809;46.618;10.764;2023-11-21T09:01:29;92320.09;;;4.74;100.00
57248;BME280;55809;46.618;10.764;2023-11-21T09:03:57;92341.66;;;5.46;100.00
57248;BME280;55809;46.618;10.764;2023-11-21T09:06:24;92331.41;;;6.01;100.00
57248;BME280;55809;46.618;10.764;2023-11-21T09:08:51;92324.06;;;6.48;100.00
57248;BME280;55809;46.618;10.764;2023-11-21T09:11:18;92337.38;;;6.80;100.00
57248;BME280;55809;46.618;10.764;2023-11-21T09:13:44;92331.84;;;7.20;100.00
57248;BME280;55809;46.618;10.764;2023-11-21T09:16:14;92326.72;;;7.47;100.00
57248;BME280;55809;46.618;10.764;2023-11-21T09:18:41;92315.84;;;7.65;100.00
57248;BME280;55809;46.618;10.764;2023-11-21T09:21:08;92319.88;;;7.94;100.00
57248;BME280;55809;46.618;10.764;2023-11-21T09:23:36;92316.59;;;8.17;100.00
57248;BME280;55809;46.618;10.764;2023-11-21T09:26:02;92314.06;;;8.44;100.00
57248;BME280;55809;46.618;10.764;2023-11-21T09:28:31;92303.44;;;8.30;100.00
57248;BME280;55809;46.618;10.764;2023-11-21T09:30:57;92308.25;;;8.05;100.00
57248;BME280;55809;46.618;10.764;2023-11-21T09:33:26;92301.00;;;8.02;100.00
57248;BME280;55809;46.618;10.764;2023-11-21T09:35:52;92302.69;;;8.26;100.00
57248;BME280;55809;46.618;10.764;2023-11-21T09:38:19;92299.66;;;8.62;100.00
57248;BME280;55809;46.618;10.764;2023-11-21T09:40:46;92293.16;;;8.93;100.00
57248;BME280;55809;46.618;10.764;2023-11-21T09:43:16;92294.47;;;9.12;100.00
57248;BME280;55809;46.618;10.764;2023-11-21T09:45:45;92280.75;;;9.03;100.00
57248;BME280;55809;46.618;10.764;2023-11-21T09:48:14;92292.34;;;8.66;100.00
57248;BME280;55809;46.618;10.764;2023-11-21T09:50:44;92299.44;;;8.49;100.00
57248;BME280;55809;46.618;10.764;2023-11-21T09:53:17;92284.91;;;8.43;100.00
57248;BME280;55809;46.618;10.764;2023-11-21T09:55:47;92281.91;;;8.68;100.00
57248;BME280;55809;46.618;10.764;2023-11-21T09:58:16;92280.41;;;8.98;100.00
57248;BME280;55809;46.618;10.764;2023-11-21T10:00:43;92275.94;;;9.18;100.00
57248;BME280;55809;46.618;10.764;2023-11-21T10:03:11;92273.00;;;9.36;100.00
57248;BME280;55809;46.618;10.764;2023-11-21T10:05:39;92249.28;;;9.54;100.00
57248;BME280;55809;46.618;10.764;2023-11-21T10:08:09;92205.72;;;9.32;100.00
57248;BME280;55809;46.618;10.764;2023-11-21T10:10:37;92263.97;;;9.97;100.00
57248;BME280;55809;46.618;10.764;2023-11-21T10:13:05;92257.38;;;10.01;100.00
57248;BME280;55809;46.618;10.764;2023-11-21T10:15:33;92253.75;;;10.12;100.00
57248;BME280;55809;46.618;10.764;2023-11-21T10:18:02;92201.97;;;9.97;100.00
57248;BME280;55809;46.618;10.764;2023-11-21T10:20:31;92238.03;;;10.30;100.00
57248;BME280;55809;46.618;10.764;2023-11-21T10:22:59;92242.47;;;10.40;100.00
57248;BME280;55809;46.618;10.764;2023-11-21T10:25:29;92243.47;;;10.50;100.00
57248;BME280;55809;46.618;10.764;2023-11-21T10:27:58;92231.06;;;10.52;100.00
57248;BME280;55809;46.618;10.764;2023-11-21T10:30:32;92227.38;;;10.63;100.00
57248;BME280;55809;46.618;10.764;2023-11-21T10:33:03;92222.78;;;10.63;100.00
57248;BME280;55809;46.618;10.764;2023-11-21T10:35:42;92221.75;;;10.57;100.00
57248;BME280;55809;46.618;10.764;2023-11-21T10:38:12;92216.94;;;10.65;100.00
57248;BME280;55809;46.618;10.764;2023-11-21T10:40:41;92221.31;;;10.78;100.00
57248;BME280;55809;46.618;10.764;2023-11-21T10:43:08;92225.19;;;10.77;100.00
57248;BME280;55809;46.618;10.764;2023-11-21T10:45:36;92212.81;;;10.80;100.00
57248;BME280;55809;46.618;10.764;2023-11-21T10:48:05;92214.28;;;11.01;100.00
57248;BME280;55809;46.618;10.764;2023-11-21T10:50:34;92217.94;;;11.11;100.00
57248;BME280;55809;46.618;10.764;2023-11-21T10:53:02;92209.28;;;11.19;100.00
57248;BME280;55809;46.618;10.764;2023-11-21T10:55:30;92214.97;;;11.05;100.00
57248;BME280;55809;46.618;10.764;2023-11-21T10:58:00;92203.59;;;11.14;100.00
57248;BME280;55809;46.618;10.764;2023-11-21T11:00:29;92198.91;;;11.34;100.00
57248;BME280;55809;46.618;10.764;2023-11-21T11:02:56;92204.31;;;11.50;100.00
57248;BME280;55809;46.618;10.764;2023-11-21T11:05:25;92081.78;;;10.75;100.00
57248;BME280;55809;46.618;10.764;2023-11-21T11:07:58;92192.50;;;11.44;100.00
57248;BME280;55809;46.618;10.764;2023-11-21T11:10:27;92199.66;;;11.51;100.00
57248;BME280;55809;46.618;10.764;2023-11-21T11:12:55;92186.50;;;11.37;100.00
57248;BME280;55809;46.618;10.764;2023-11-21T11:15:25;92192.56;;;11.24;100.00
57248;BME280;55809;46.618;10.764;2023-11-21T11:17:52;92188.19;;;11.31;100.00
57248;BME280;55809;46.618;10.764;2023-11-21T11:20:23;92188.72;;;11.42;100.00
57248;BME280;55809;46.618;10.764;2023-11-21T11:22:59;92177.97;;;11.38;100.00
57248;BME280;55809;46.618;10.764;2023-11-21T11:25:41;92186.00;;;11.58;100.00
57248;BME280;55809;46.618;10.764;2023-11-21T11:28:17;92184.66;;;11.66;100.00
57248;BME280;55809;46.618;10.764;2023-11-21T11:30:57;92188.19;;;11.63;100.00
57248;BME280;55809;46.618;10.764;2023-11-21T11:33:35;92189.63;;;11.35;100.00
57248;BME280;55809;46.618;10.764;2023-11-21T11:36:06;92189.69;;;11.48;100.00
57248;BME280;55809;46.618;10.764;2023-11-21T11:38:37;92178.88;;;11.48;100.00
57248;BME280;55809;46.618;10.764;2023-11-21T11:41:05;92179.31;;;11.46;100.00
57248;BME280;55809;46.618;10.764;2023-11-21T11:43:32;92142.91;;;11.35;100.00
57248;BME280;55809;46.618;10.764;2023-11-21T11:46:07;92168.03;;;11.35;100.00
57248;BME280;55809;46.618;10.764;2023-11-21T11:48:35;92172.94;;;11.04;100.00
57248;BME280;55809;46.618;10.764;2023-11-21T11:51:05;92180.97;;;10.71;100.00
57248;BME280;55809;46.618;10.764;2023-11-21T11:53:39;92164.66;;;10.39;100.00
57248;BME280;55809;46.618;10.764;2023-11-21T11:56:23;92170.81;;;10.39;100.00
57248;BME280;55809;46.618;10.764;2023-11-21T11:58:53;92167.25;;;10.22;100.00
57248;BME280;55809;46.618;10.764;2023-11-21T12:01:22;92173.22;;;10.14;100.00
57248;BME280;55809;46.618;10.764;2023-11-21T12:04:24;92167.28;;;9.99;100.00
57248;BME280;55809;46.618;10.764;2023-11-21T12:06:59;92169.38;;;9.91;100.00
57248;BME280;55809;46.618;10.764;2023-11-21T12:09:28;92161.81;;;9.82;100.00
57248;BME280;55809;46.618;10.764;2023-11-21T12:11:56;92164.72;;;9.92;100.00
57248;BME280;55809;46.618;10.764;2023-11-21T12:14:23;92098.28;;;9.61;100.00
57248;BME280;55809;46.618;10.764;2023-11-21T12:16:52;92165.50;;;10.12;100.00
57248;BME280;55809;46.618;10.764;2023-11-21T12:19:20;92091.94;;;9.72;100.00
57248;BME280;55809;46.618;10.764;2023-11-21T12:21:48;92167.34;;;10.39;100.00
57248;BME280;55809;46.618;10.764;2023-11-21T12:24:16;92166.19;;;10.60;100.00
57248;BME280;55809;46.618;10.764;2023-11-21T12:26:43;92157.84;;;10.70;100.00
57248;BME280;55809;46.618;10.764;2023-11-21T12:29:10;92148.41;;;10.78;100.00
57248;BME280;55809;46.618;10.764;2023-11-21T12:31:37;92155.59;;;10.85;100.00
57248;BME280;55809;46.618;10.764;2023-11-21T12:34:06;92156.06;;;11.00;100.00
57248;BME280;55809;46.618;10.764;2023-11-21T12:36:37;92161.63;;;10.93;100.00
57248;BME280;55809;46.618;10.764;2023-11-21T12:39:04;92157.06;;;10.90;100.00
57248;BME280;55809;46.618;10.764;2023-11-21T12:41:31;92159.00;;;10.89;100.00
57248;BME280;55809;46.618;10.764;2023-11-21T12:43:58;92152.03;;;10.72;100.00
57248;BME280;55809;46.618;10.764;2023-11-21T12:46:25;92149.88;;;10.47;100.00
57248;BME280;55809;46.618;10.764;2023-11-21T12:48:55;92155.59;;;10.49;100.00
57248;BME280;55809;46.618;10.764;2023-11-21T12:51:23;92152.41;;;10.34;100.00
57248;BME280;55809;46.618;10.764;2023-11-21T12:53:52;92151.28;;;10.12;100.00